Time;durP1;ratioP1;P1;durP2;ratioP2;P2;SDS_P1;SDS_P2;PMS_P1;PMS_P2;Temp;Humidity;BMP_temperature;BMP_pressure;BME280_temperature;BME280_humidity;BME280_pressure;Samples;Min_cycle;Max_cycle;Signal;HPM_P1;HPM_P2
2024/01/26 00:00:13;;;;;;;12.52;2.05;;;;;;;7.95;49.67;99977.13;3084225;28;20078;-68
2024/01/26 00:01:45;;;;;;;10.55;1.88;;;;;;;7.96;49.40;99971.91;3106308;28;20054;-69
2024/01/26 00:03:16;;;;;;;7.72;1.77;;;;;;;7.89;49.61;99969.56;3107812;28;20049;-72
2024/01/26 00:04:47;;;;;;;6.40;1.40;;;;;;;7.91;49.67;99976.38;3105316;28;20064;-71
2024/01/26 00:06:18;;;;;;;6.00;1.55;;;;;;;7.92;49.34;99982.41;3107986;28;20049;-73
2024/01/26 00:07:50;;;;;;;8.20;1.60;;;;;;;7.92;49.54;99991.03;3108189;28;20076;-73
2024/01/26 00:09:21;;;;;;;4.60;1.13;;;;;;;7.91;49.38;99999.72;3107522;28;20050;-75
2024/01/26 00:10:54;;;;;;;8.57;1.80;;;;;;;7.92;49.12;99993.63;3107666;28;20073;-75
2024/01/26 00:12:25;;;;;;;5.20;1.10;;;;;;;7.91;49.21;99999.72;3107710;28;20776;-74
2024/01/26 00:13:57;;;;;;;5.88;1.30;;;;;;;7.92;49.00;99996.22;3108193;28;20133;-74
2024/01/26 00:15:28;;;;;;;9.55;1.45;;;;;;;7.92;48.87;99993.63;3108054;28;20057;-73
2024/01/26 00:16:59;;;;;;;7.07;1.20;;;;;;;7.51;48.71;99925.78;3107825;28;20050;-74
2024/01/26 00:18:31;;;;;;;4.93;1.35;;;;;;;7.96;48.41;99992.66;3105962;28;20052;-74
2024/01/26 00:20:02;;;;;;;5.15;1.38;;;;;;;7.94;48.46;99986.66;3098410;28;20050;-73
2024/01/26 00:21:34;;;;;;;6.25;1.30;;;;;;;7.99;48.46;99999.50;3107472;28;20065;-74
2024/01/26 00:23:05;;;;;;;7.20;1.30;;;;;;;8.01;48.17;99997.69;3104996;28;20043;-73
2024/01/26 00:24:36;;;;;;;7.47;1.42;;;;;;;7.98;48.06;99997.78;3099575;28;20050;-73
2024/01/26 00:26:08;;;;;;;4.00;1.20;;;;;;;8.01;48.00;100004.63;3083541;28;20050;-74
2024/01/26 00:27:40;;;;;;;7.55;1.50;;;;;;;7.97;48.19;100002.13;3102092;28;20051;-75
2024/01/26 00:29:11;;;;;;;9.73;1.60;;;;;;;7.97;48.21;100002.13;3105469;28;20503;-73
2024/01/26 00:30:43;;;;;;;7.95;1.70;;;;;;;7.94;48.23;99994.44;3107739;28;20066;-74
2024/01/26 00:32:14;;;;;;;6.45;1.52;;;;;;;7.89;48.08;99996.31;3107688;28;20428;-75
2024/01/26 00:33:46;;;;;;;5.50;1.33;;;;;;;7.94;48.11;100006.56;3106075;28;20056;-74
2024/01/26 00:35:17;;;;;;;5.38;1.52;;;;;;;7.87;48.17;99995.53;3102072;28;20377;-75
2024/01/26 00:36:49;;;;;;;9.77;1.58;;;;;;;7.88;48.52;100012.78;3107697;28;20053;-74
2024/01/26 00:38:20;;;;;;;6.35;1.60;;;;;;;7.87;48.34;100012.84;3106454;28;20050;-74
2024/01/26 00:39:52;;;;;;;8.70;1.60;;;;;;;7.84;48.21;100015.50;3107604;28;20430;-75
2024/01/26 00:41:24;;;;;;;6.32;1.63;;;;;;;7.86;48.08;100019.75;3107296;28;20806;-74
2024/01/26 00:42:56;;;;;;;7.20;1.15;;;;;;;7.85;48.13;100015.47;3107010;28;20111;-75
2024/01/26 00:44:27;;;;;;;8.70;1.73;;;;;;;7.75;48.28;99989.00;3107818;28;20452;-74
2024/01/26 00:45:58;;;;;;;6.65;1.48;;;;;;;7.68;48.16;99974.50;3107229;28;20049;-74
2024/01/26 00:47:30;;;;;;;10.75;2.63;;;;;;;7.80;48.17;99998.38;3107791;28;20054;-73
2024/01/26 00:49:01;;;;;;;5.47;1.05;;;;;;;7.78;48.39;100000.13;3105447;28;20464;-72
2024/01/26 00:50:32;;;;;;;10.02;1.52;;;;;;;7.74;48.17;99994.22;3107332;28;20057;-75
2024/01/26 00:52:04;;;;;;;9.15;1.40;;;;;;;7.76;48.20;100000.22;3107744;28;20058;-74
2024/01/26 00:53:35;;;;;;;7.38;1.60;;;;;;;7.41;48.27;99936.47;3097194;28;20145;-71
2024/01/26 00:55:08;;;;;;;8.15;1.50;;;;;;;7.74;47.97;99995.06;3097548;28;20444;-68
2024/01/26 00:56:40;;;;;;;8.93;1.30;;;;;;;7.75;47.95;99998.53;3098784;28;20167;-67
2024/01/26 00:58:12;;;;;;;7.45;1.50;;;;;;;7.74;48.15;99999.41;3100471;28;20255;-69
2024/01/26 00:59:42;;;;;;;6.07;1.00;;;;;;;7.71;48.32;99997.75;3107579;28;20060;-69
2024/01/26 01:01:14;;;;;;;7.43;1.30;;;;;;;7.71;48.02;99989.13;3107683;28;20053;-69
2024/01/26 01:02:45;;;;;;;9.48;1.67;;;;;;;7.71;48.07;99989.13;3107349;28;20050;-69
2024/01/26 01:04:17;;;;;;;6.35;1.40;;;;;;;7.72;48.05;99990.84;3106686;28;20519;-69
2024/01/26 01:05:48;;;;;;;9.77;1.30;;;;;;;7.72;48.18;100001.19;3106915;28;20050;-68
2024/01/26 01:07:19;;;;;;;4.68;1.25;;;;;;;7.73;48.01;99997.72;3107244;28;20054;-69
2024/01/26 01:08:50;;;;;;;5.70;1.23;;;;;;;7.75;47.95;99995.94;3107616;28;20045;-69
2024/01/26 01:10:22;;;;;;;6.05;1.48;;;;;;;7.72;48.02;99990.84;3107244;28;20082;-67
2024/01/26 01:11:54;;;;;;;8.35;1.83;;;;;;;7.75;47.80;99993.34;3107418;28;20801;-69
2024/01/26 01:13:26;;;;;;;6.93;1.60;;;;;;;7.78;48.10;99997.53;3107280;28;20088;-69
2024/01/26 01:14:58;;;;;;;8.05;1.60;;;;;;;7.78;47.82;99994.97;3106726;28;20439;-67
2024/01/26 01:16:32;;;;;;;6.72;1.35;;;;;;;7.77;48.04;100001.88;3107454;28;20623;-67
2024/01/26 01:18:02;;;;;;;;;;;;;;;7.65;48.19;100002.25;3107722;28;20137;-66
2024/01/26 01:19:34;;;;;;;7.90;1.45;;;;;;;7.68;48.27;99997.00;3101195;28;20504;-66
2024/01/26 01:21:05;;;;;;;7.10;1.58;;;;;;;7.69;48.25;100004.72;3101684;28;20409;-65
2024/01/26 01:22:38;;;;;;;7.47;2.38;;;;;;;7.67;48.33;99990.97;3107145;28;20148;-66
2024/01/26 01:24:08;;;;;;;8.17;1.73;;;;;;;7.69;48.34;99990.91;3105696;28;20050;-65
2024/01/26 01:25:40;;;;;;;10.00;1.60;;;;;;;7.70;48.29;99987.44;3107174;28;20312;-65
2024/01/26 01:27:13;;;;;;;5.30;1.52;;;;;;;7.70;48.19;99977.91;3107177;28;20097;-66
2024/01/26 01:28:44;;;;;;;7.90;1.53;;;;;;;7.70;48.36;99984.84;3106735;28;20476;-66
2024/01/26 01:30:15;;;;;;;5.30;1.50;;;;;;;7.71;48.12;99981.34;3107307;28;20045;-66
2024/01/26 01:31:47;;;;;;;8.90;2.00;;;;;;;7.71;48.12;99983.94;3106895;28;20061;-66
2024/01/26 01:33:18;;;;;;;10.68;1.92;;;;;;;7.72;48.18;99986.50;3106864;28;20119;-66
2024/01/26 01:34:49;;;;;;;7.75;1.55;;;;;;;7.71;48.13;99978.75;3101672;28;20054;-65
2024/01/26 01:36:20;;;;;;;8.35;1.73;;;;;;;7.72;48.30;99975.28;3106835;28;20053;-67
2024/01/26 01:37:52;;;;;;;12.27;1.48;;;;;;;7.65;48.42;99972.00;3106958;28;20137;-68
2024/01/26 01:39:23;;;;;;;5.82;1.83;;;;;;;7.63;48.45;99981.59;3102524;28;20133;-68
2024/01/26 01:40:55;;;;;;;4.68;1.55;;;;;;;7.62;48.50;99990.25;3106943;28;20053;-68
2024/01/26 01:42:27;;;;;;;6.88;1.50;;;;;;;7.64;48.51;99985.03;3107285;28;20050;-65
2024/01/26 01:43:59;;;;;;;6.60;1.55;;;;;;;7.63;48.57;99996.28;3106825;28;20064;-63
2024/01/26 01:45:30;;;;;;;6.50;1.47;;;;;;;7.58;48.70;99985.22;3107290;28;20104;-65
2024/01/26 01:47:02;;;;;;;7.03;1.40;;;;;;;7.56;48.61;100003.38;3106602;28;20702;-64
2024/01/26 01:48:33;;;;;;;5.20;1.13;;;;;;;7.54;48.75;99997.38;3106524;28;20538;-65
2024/01/26 01:50:06;;;;;;;8.98;1.88;;;;;;;7.51;48.69;99993.19;3097288;28;20136;-65
2024/01/26 01:51:38;;;;;;;;;;;;;;;7.36;49.08;99993.59;3102151;28;20508;-68
2024/01/26 01:53:11;;;;;;;7.78;1.70;;;;;;;7.39;49.13;99997.84;3106857;28;19921;-68
2024/01/26 01:54:42;;;;;;;5.68;1.30;;;;;;;7.38;49.28;99997.00;3106860;28;20581;-68
2024/01/26 01:56:16;;;;;;;9.32;1.80;;;;;;;7.41;49.17;100002.09;3106419;28;20380;-67
2024/01/26 01:57:53;;;;;;;8.23;1.60;;;;;;;7.40;49.32;99999.56;3099714;28;20121;-67
2024/01/26 01:59:26;;;;;;;6.25;1.58;;;;;;;7.40;49.33;100007.34;3106795;28;20042;-67
2024/01/26 02:00:57;;;;;;;8.07;1.67;;;;;;;7.38;49.17;100001.34;3106719;28;20050;-67
2024/01/26 02:02:29;;;;;;;6.25;1.88;;;;;;;7.38;49.20;100006.53;3106916;28;20076;-68
2024/01/26 02:04:02;;;;;;;12.10;1.45;;;;;;;7.35;49.28;100009.19;3106387;28;20061;-67
2024/01/26 02:05:52;;;;;;;8.57;1.42;;;;;;;7.31;49.31;100011.03;3100870;28;20184;-68
2024/01/26 02:07:24;;;;;;;10.02;1.90;;;;;;;7.34;49.53;100015.28;3106355;28;20050;-68
2024/01/26 02:08:56;;;;;;;5.57;1.27;;;;;;;7.32;49.33;100007.53;3106894;28;20100;-67
2024/01/26 02:10:27;;;;;;;9.88;1.80;;;;;;;7.34;49.26;100007.50;3107051;28;20060;-67
2024/01/26 02:12:00;;;;;;;9.35;1.45;;;;;;;7.34;49.47;100010.09;3106580;28;20054;-67
2024/01/26 02:13:32;;;;;;;6.63;1.65;;;;;;;7.32;49.46;100002.34;3106807;28;20058;-67
2024/01/26 02:15:07;;;;;;;8.25;1.52;;;;;;;7.34;49.34;100000.59;3106090;28;20056;-69
2024/01/26 02:16:37;;;;;;;7.78;1.40;;;;;;;7.32;49.31;100012.72;3095314;28;20053;-69
2024/01/26 02:18:09;;;;;;;8.23;1.52;;;;;;;7.33;49.41;99993.69;3106616;28;20045;-69
2024/01/26 02:19:40;;;;;;;6.60;1.80;;;;;;;7.36;49.21;100008.28;3105706;28;20058;-68
2024/01/26 02:21:12;;;;;;;3.33;1.67;;;;;;;7.38;49.07;100002.19;3104559;28;20061;-69
2024/01/26 02:22:42;;;;;;;4.28;1.70;;;;;;;7.38;49.13;99994.41;3106935;28;20056;-69
2024/01/26 02:24:16;;;;;;;8.35;1.70;;;;;;;7.40;49.13;99996.97;3106417;28;20058;-70
2024/01/26 02:25:47;;;;;;;9.60;1.80;;;;;;;7.43;49.02;99991.69;3106703;28;20072;-70
2024/01/26 02:27:19;;;;;;;6.90;1.65;;;;;;;7.47;48.80;99995.88;3106718;28;20061;-69
2024/01/26 02:28:50;;;;;;;5.93;1.30;;;;;;;7.46;48.81;99995.03;3106287;28;20077;-70
2024/01/26 02:30:21;;;;;;;9.55;1.80;;;;;;;7.47;48.85;100001.06;3104387;28;20546;-71
2024/01/26 02:31:52;;;;;;;7.55;1.63;;;;;;;7.48;48.80;99998.44;3100057;28;20084;-70
2024/01/26 02:33:24;;;;;;;9.27;2.25;;;;;;;7.49;48.93;99992.34;3106662;28;20054;-70
2024/01/26 02:34:55;;;;;;;7.63;1.75;;;;;;;7.50;48.66;99993.19;3107161;28;20430;-71
2024/01/26 02:36:27;;;;;;;8.40;1.70;;;;;;;7.55;48.52;99999.09;3100107;28;20061;-70
2024/01/26 02:37:58;;;;;;;5.35;1.88;;;;;;;7.56;48.70;99999.94;3109009;28;20054;-70
2024/01/26 02:39:33;;;;;;;8.18;2.10;;;;;;;7.57;48.44;100006.81;3108604;28;20053;-72
2024/01/26 02:41:04;;;;;;;8.60;1.85;;;;;;;7.56;48.41;100005.97;3109018;28;20058;-70
2024/01/26 02:42:35;;;;;;;9.50;1.70;;;;;;;7.58;48.53;100014.56;3109032;28;20054;-70
2024/01/26 02:44:06;;;;;;;9.95;2.08;;;;;;;7.62;48.51;100007.53;3109084;28;20054;-71
2024/01/26 02:45:39;;;;;;;9.57;1.90;;;;;;;7.61;48.44;99996.34;3104308;28;20089;-71
2024/01/26 02:47:09;;;;;;;9.82;2.35;;;;;;;7.63;48.43;100006.63;3108591;28;20045;-71
2024/01/26 02:48:41;;;;;;;5.22;1.40;;;;;;;7.62;48.65;100005.78;3108396;28;20060;-71
2024/01/26 02:50:13;;;;;;;7.22;1.83;;;;;;;7.63;48.69;100017.00;3107808;28;20053;-70
2024/01/26 02:51:44;;;;;;;7.47;1.60;;;;;;;7.63;48.41;100010.09;3105756;28;20060;-67
2024/01/26 02:53:15;;;;;;;12.10;1.67;;;;;;;7.67;48.45;100029.00;3108758;28;20045;-67
2024/01/26 02:54:47;;;;;;;8.18;2.50;;;;;;;7.68;48.37;100021.16;3108762;28;20053;-68
2024/01/26 02:56:19;;;;;;;8.80;2.00;;;;;;;7.70;48.33;100031.50;3109039;28;20120;-68
2024/01/26 02:57:50;;;;;;;6.22;1.63;;;;;;;7.70;48.52;100037.53;3102809;28;20061;-68
2024/01/26 02:59:22;;;;;;;7.38;1.58;;;;;;;7.73;48.32;100049.56;3109086;28;20049;-68
2024/01/26 03:00:53;;;;;;;8.25;2.15;;;;;;;7.66;48.56;100028.16;3108615;28;20045;-68
2024/01/26 03:02:25;;;;;;;11.15;1.80;;;;;;;7.73;48.62;100046.97;3108506;28;20230;-68
2024/01/26 03:03:55;;;;;;;6.53;1.90;;;;;;;7.73;48.57;100042.63;3108611;28;20463;-68
2024/01/26 03:05:27;;;;;;;5.28;1.45;;;;;;;7.72;48.83;100043.53;3107037;28;20053;-68
2024/01/26 03:06:58;;;;;;;7.93;2.17;;;;;;;7.71;48.69;100047.00;3098170;28;20055;-68
2024/01/26 03:08:31;;;;;;;5.97;2.00;;;;;;;7.67;48.95;100041.97;3109025;28;20060;-69
2024/01/26 03:10:04;;;;;;;8.85;2.45;;;;;;;7.36;48.89;99998.78;3108798;28;20061;-68
2024/01/26 03:11:37;;;;;;;8.68;1.80;;;;;;;7.65;48.92;100049.75;3107324;28;20490;-68
2024/01/26 03:13:09;;;;;;;9.75;1.90;;;;;;;7.67;48.90;100050.56;3102215;28;20159;-69
2024/01/26 03:14:40;;;;;;;4.85;1.45;;;;;;;7.68;49.03;100054.00;3108080;28;20050;-68
2024/01/26 03:16:12;;;;;;;7.22;1.60;;;;;;;7.70;48.84;100068.63;3106029;28;21120;-68
2024/01/26 03:17:43;;;;;;;7.78;1.92;;;;;;;7.72;48.96;100063.41;3106666;28;20526;-68
2024/01/26 03:19:14;;;;;;;5.43;1.73;;;;;;;7.69;48.74;100053.09;3108469;28;20065;-68
2024/01/26 03:20:45;;;;;;;8.40;1.90;;;;;;;7.73;48.73;100065.09;3105494;28;20058;-69
2024/01/26 03:22:17;;;;;;;7.70;1.35;;;;;;;7.74;48.76;100074.56;3103850;28;20060;-68
2024/01/26 03:23:48;;;;;;;6.78;2.15;;;;;;;7.75;48.74;100076.28;3108266;28;20054;-69
2024/01/26 03:25:21;;;;;;;5.78;1.67;;;;;;;7.79;48.50;100075.28;3108856;28;20045;-68
2024/01/26 03:26:52;;;;;;;6.63;1.52;;;;;;;7.77;48.38;100086.59;3103777;28;20050;-68
2024/01/26 03:28:24;;;;;;;7.72;1.67;;;;;;;7.78;48.73;100072.72;3100093;28;20057;-70
2024/01/26 03:29:54;;;;;;;6.10;1.35;;;;;;;7.80;48.75;100071.78;3108165;28;20516;-70
2024/01/26 03:31:26;;;;;;;7.63;1.63;;;;;;;7.77;48.41;100068.44;3106670;28;20054;-70
2024/01/26 03:32:57;;;;;;;9.77;2.45;;;;;;;7.81;48.50;100076.09;3097531;28;20050;-71
2024/01/26 03:34:30;;;;;;;9.50;1.48;;;;;;;7.81;48.42;100076.09;3108521;28;20163;-71
2024/01/26 03:36:01;;;;;;;5.25;1.58;;;;;;;7.81;48.38;100075.22;3105150;28;20042;-71
2024/01/26 03:37:32;;;;;;;6.72;1.73;;;;;;;7.75;48.47;100073.69;3108192;28;20061;-70
2024/01/26 03:39:03;;;;;;;7.88;1.98;;;;;;;7.41;48.52;100009.88;3107998;28;20535;-70
2024/01/26 03:40:37;;;;;;;5.10;1.33;;;;;;;7.79;48.56;100075.28;3108455;28;20105;-70
2024/01/26 03:42:10;;;;;;;9.23;1.63;;;;;;;7.80;48.49;100086.50;3101322;28;20046;-71
2024/01/26 03:43:42;;;;;;;9.93;1.85;;;;;;;7.35;48.36;100020.41;3105497;28;20137;-70
2024/01/26 03:45:13;;;;;;;9.55;1.67;;;;;;;7.80;48.41;100086.50;3108527;28;20054;-71
2024/01/26 03:46:45;;;;;;;7.72;1.83;;;;;;;7.78;48.49;100086.56;3106792;28;20065;-67
2024/01/26 03:48:16;;;;;;;6.97;1.50;;;;;;;7.78;48.63;100088.28;3108476;28;20038;-71
2024/01/26 03:49:47;;;;;;;5.60;1.35;;;;;;;7.48;48.45;100032.13;3108312;28;20076;-69
2024/01/26 03:51:18;;;;;;;4.20;1.50;;;;;;;7.77;48.70;100084.84;3103408;28;20050;-70
2024/01/26 03:52:50;;;;;;;8.75;1.38;;;;;;;7.77;48.64;100082.25;3101074;28;20053;-71
2024/01/26 03:54:21;;;;;;;5.97;1.38;;;;;;;7.77;48.62;100084.84;3108403;28;20049;-70
2024/01/26 03:55:54;;;;;;;7.35;1.52;;;;;;;7.79;48.49;100085.66;3107895;28;20057;-69
2024/01/26 03:57:25;;;;;;;9.02;1.83;;;;;;;7.78;48.74;100083.09;3101978;28;20439;-70
2024/01/26 03:58:57;;;;;;;6.82;1.65;;;;;;;7.74;48.84;100090.97;3108126;28;20057;-70
2024/01/26 04:00:28;;;;;;;9.00;1.98;;;;;;;7.72;48.68;100085.00;3107856;28;20848;-70
2024/01/26 04:02:00;;;;;;;7.07;1.80;;;;;;;7.74;48.82;100090.13;3107973;28;20050;-70
2024/01/26 04:03:30;;;;;;;6.07;1.70;;;;;;;7.74;48.58;100092.72;3108342;28;20136;-72
2024/01/26 04:05:02;;;;;;;8.85;1.40;;;;;;;7.73;48.86;100085.84;3108146;28;20064;-72
2024/01/26 04:06:37;;;;;;;8.50;1.70;;;;;;;7.74;48.83;100082.34;3101984;28;20057;-71
2024/01/26 04:08:09;;;;;;;6.55;1.95;;;;;;;7.66;48.94;100071.34;3103062;28;20136;-69
2024/01/26 04:09:39;;;;;;;7.72;2.35;;;;;;;7.71;48.72;100085.03;3097310;28;20054;-69
2024/01/26 04:11:13;;;;;;;5.05;1.38;;;;;;;7.72;48.97;100085.00;3105398;28;20065;-69
2024/01/26 04:12:43;;;;;;;9.45;1.63;;;;;;;7.69;48.91;100079.03;3107921;28;20050;-69
2024/01/26 04:14:15;;;;;;;6.78;1.73;;;;;;;7.50;48.91;100051.06;3108305;28;20052;-69
2024/01/26 04:15:46;;;;;;;6.55;1.65;;;;;;;7.71;49.11;100083.28;3107928;28;20531;-69
2024/01/26 04:17:18;;;;;;;17.70;1.80;;;;;;;7.72;48.94;100084.16;3108236;28;20228;-71
2024/01/26 04:18:49;;;;;;;8.82;1.60;;;;;;;7.73;48.87;100078.06;3107642;28;20045;-70
2024/01/26 04:20:21;;;;;;;8.02;1.88;;;;;;;7.72;48.95;100085.00;3107721;28;20563;-70
2024/01/26 04:21:52;;;;;;;7.45;1.70;;;;;;;7.73;48.95;100083.25;3104052;28;20521;-70
2024/01/26 04:23:23;;;;;;;8.00;2.17;;;;;;;7.72;48.87;100081.56;3105284;28;20046;-70
2024/01/26 04:24:54;;;;;;;7.45;2.28;;;;;;;7.70;48.88;100081.59;3107875;28;20064;-69
2024/01/26 04:26:28;;;;;;;8.35;1.90;;;;;;;7.74;48.63;100078.00;3107468;28;20054;-69
2024/01/26 04:27:59;;;;;;;6.00;1.58;;;;;;;7.71;48.58;100074.66;3103695;28;20050;-69
2024/01/26 04:29:31;;;;;;;10.55;1.60;;;;;;;7.72;48.72;100073.78;3108086;28;20438;-69
2024/01/26 04:31:03;;;;;;;5.32;1.88;;;;;;;7.72;48.70;100072.03;3107388;28;20049;-69
2024/01/26 04:32:35;;;;;;;9.30;1.65;;;;;;;7.72;48.42;100072.03;3107665;28;20061;-69
2024/01/26 04:34:06;;;;;;;8.38;1.92;;;;;;;7.72;48.48;100069.44;3108021;28;20078;-69
2024/01/26 04:35:38;;;;;;;5.70;1.48;;;;;;;7.69;48.33;100066.94;3097665;28;20050;-69
2024/01/26 04:37:09;;;;;;;7.13;1.50;;;;;;;7.70;48.24;100065.19;3102253;28;20054;-69
2024/01/26 04:38:40;;;;;;;5.72;1.23;;;;;;;7.68;48.18;100066.97;3095314;28;20046;-69
2024/01/26 04:40:12;;;;;;;5.75;1.60;;;;;;;7.66;48.15;100071.34;3099065;28;20496;-70
2024/01/26 04:41:45;;;;;;;6.65;1.42;;;;;;;7.67;48.14;100066.13;3101841;28;20061;-71
2024/01/26 04:43:18;;;;;;;5.03;1.65;;;;;;;7.65;47.93;100056.69;3105629;28;20495;-75
2024/01/26 04:44:49;;;;;;;4.65;1.40;;;;;;;7.65;48.00;100060.13;3107322;28;20143;-70
2024/01/26 04:46:20;;;;;;;6.55;1.45;;;;;;;7.66;47.96;100054.06;3107408;28;20053;-72
2024/01/26 04:47:52;;;;;;;4.55;1.17;;;;;;;7.68;47.92;100066.97;3107539;28;20260;-72
2024/01/26 04:49:24;;;;;;;9.35;1.75;;;;;;;7.63;47.94;100059.34;3107852;28;20054;-76
2024/01/26 04:50:55;;;;;;;7.88;1.35;;;;;;;7.66;47.88;100058.38;3102565;28;20058;-80
2024/01/26 04:52:27;;;;;;;6.72;1.25;;;;;;;7.66;47.83;100063.56;3097139;28;20440;-74
2024/01/26 04:53:57;;;;;;;6.30;1.30;;;;;;;7.64;47.83;100071.41;3107757;28;20503;-75
2024/01/26 04:55:29;;;;;;;9.43;1.45;;;;;;;7.66;47.57;100054.06;3107853;28;20069;-75
2024/01/26 04:57:01;;;;;;;6.45;1.55;;;;;;;7.64;47.36;100060.19;3088977;28;20782;-75
2024/01/26 04:58:33;;;;;;;8.55;2.00;;;;;;;7.65;47.29;100067.91;3094486;28;20054;-73
2024/01/26 05:00:06;;;;;;;4.82;1.25;;;;;;;7.65;47.43;100061.88;3105892;28;20049;-77
2024/01/26 05:01:38;;;;;;;4.22;1.23;;;;;;;7.63;47.30;100064.53;3096381;28;20050;-73
2024/01/26 05:03:08;;;;;;;6.15;1.40;;;;;;;7.64;47.37;100062.78;3105297;28;20144;-71
2024/01/26 05:04:40;;;;;;;7.93;1.27;;;;;;;7.63;47.22;100064.53;3101770;28;20050;-72
2024/01/26 05:06:12;;;;;;;4.68;1.40;;;;;;;7.62;47.15;100065.41;3097664;28;20073;-75
2024/01/26 05:07:44;;;;;;;5.93;1.50;;;;;;;7.62;47.09;100069.75;3102781;28;20053;-74
2024/01/26 05:09:15;;;;;;;6.15;1.25;;;;;;;7.58;46.89;100065.56;3107621;28;20410;-73
2024/01/26 05:10:47;;;;;;;5.68;1.30;;;;;;;7.60;46.75;100079.31;3107213;28;20058;-76
2024/01/26 05:12:19;;;;;;;5.78;1.23;;;;;;;7.63;46.75;100074.03;3107600;28;20384;-73
2024/01/26 05:13:51;;;;;;;9.82;1.30;;;;;;;7.60;46.79;100068.94;3107401;28;20056;-70
2024/01/26 05:15:21;;;;;;;9.30;1.50;;;;;;;7.62;46.71;100073.19;3106926;28;20647;-69
2024/01/26 05:16:53;;;;;;;5.07;1.25;;;;;;;7.61;46.64;100071.50;3103039;28;20056;-70
2024/01/26 05:18:24;;;;;;;12.07;1.63;;;;;;;7.48;46.55;100042.50;3095542;28;20521;-73
2024/01/26 05:19:56;;;;;;;10.45;3.22;;;;;;;7.57;46.52;100066.44;3097642;28;20054;-70
2024/01/26 05:21:27;;;;;;;14.45;5.82;;;;;;;7.62;46.49;100068.00;3105129;28;20050;-71
2024/01/26 05:22:59;;;;;;;8.77;2.17;;;;;;;7.58;46.37;100057.78;3107564;28;20077;-74
2024/01/26 05:24:29;;;;;;;7.32;2.00;;;;;;;7.63;46.59;100066.25;3101777;28;20046;-72
2024/01/26 05:26:02;;;;;;;89.53;44.20;;;;;;;7.58;46.66;100060.38;3107972;28;20390;-71
2024/01/26 05:27:34;;;;;;;11.63;3.15;;;;;;;7.64;46.40;100065.38;3099402;28;20487;-66
2024/01/26 05:29:07;;;;;;;10.52;2.58;;;;;;;7.68;46.30;100078.19;3104059;28;20112;-72
2024/01/26 05:30:38;;;;;;;12.50;2.13;;;;;;;7.74;46.19;100079.75;3107430;28;20054;-69
2024/01/26 05:32:09;;;;;;;4.72;1.23;;;;;;;7.75;46.20;100071.09;3107191;28;20490;-71
2024/01/26 05:33:42;;;;;;;8.40;1.40;;;;;;;7.77;46.20;100071.88;3107417;28;20054;-69
2024/01/26 05:35:13;;;;;;;8.32;2.70;;;;;;;7.75;46.08;100068.50;3099075;28;20526;-66
2024/01/26 05:36:45;;;;;;;6.93;1.35;;;;;;;7.73;46.23;100080.66;3098321;28;20054;-67
2024/01/26 05:38:16;;;;;;;7.78;1.30;;;;;;;7.72;46.36;100073.78;3102668;28;20045;-70
2024/01/26 05:39:48;;;;;;;7.97;1.80;;;;;;;7.70;46.20;100085.94;3106495;28;20056;-72
2024/01/26 05:41:18;;;;;;;5.90;1.40;;;;;;;7.70;46.41;100086.78;3101641;28;20511;-73
2024/01/26 05:42:52;;;;;;;6.63;1.65;;;;;;;7.69;46.39;100090.28;3106520;28;20064;-68
2024/01/26 05:44:23;;;;;;;8.85;1.42;;;;;;;7.66;46.41;100102.44;3102336;28;20089;-66
2024/01/26 05:45:55;;;;;;;8.63;1.52;;;;;;;7.65;46.52;100103.34;3107012;28;20080;-65
2024/01/26 05:47:26;;;;;;;4.10;1.00;;;;;;;7.62;46.56;100113.81;3107041;28;20136;-71
2024/01/26 05:48:57;;;;;;;4.93;1.63;;;;;;;7.60;46.60;100106.09;3107219;28;20053;-68
2024/01/26 05:50:28;;;;;;;8.02;1.90;;;;;;;7.59;46.53;100113.91;3106911;28;20127;-70
2024/01/26 05:52:00;;;;;;;15.10;1.75;;;;;;;7.58;46.69;100114.78;3097911;28;20054;-67
2024/01/26 05:53:31;;;;;;;6.75;1.23;;;;;;;7.55;46.73;100112.28;3096350;28;20061;-65
2024/01/26 05:55:04;;;;;;;12.32;4.13;;;;;;;7.51;46.94;100112.38;3094719;28;20134;-69
2024/01/26 05:56:39;;;;;;;10.85;2.60;;;;;;;7.43;47.04;100100.53;3094675;28;20050;-68
2024/01/26 05:58:13;;;;;;;24.00;7.68;;;;;;;7.54;46.90;100119.19;3094016;28;20054;-68
2024/01/26 05:59:44;;;;;;;10.55;2.45;;;;;;;7.55;47.00;100122.66;3095956;28;20133;-64
2024/01/26 06:01:16;;;;;;;6.82;1.77;;;;;;;7.56;46.74;100113.97;3098499;28;20050;-71
2024/01/26 06:02:47;;;;;;;7.85;1.88;;;;;;;7.55;46.93;100114.88;3098387;28;20061;-68
2024/01/26 06:04:19;;;;;;;11.38;1.65;;;;;;;7.55;46.92;100115.72;3100278;28;20460;-68
2024/01/26 06:05:50;;;;;;;11.63;2.10;;;;;;;7.55;46.89;100117.47;3100448;28;20554;-66
2024/01/26 06:07:22;;;;;;;8.13;1.73;;;;;;;7.50;47.04;100118.44;3099364;28;20053;-68
2024/01/26 06:08:53;;;;;;;7.10;1.83;;;;;;;7.50;47.07;100126.22;3102086;28;20046;-67
2024/01/26 06:10:25;;;;;;;6.07;1.42;;;;;;;7.51;47.08;100127.06;3097665;28;20061;-67
2024/01/26 06:11:56;;;;;;;11.27;1.80;;;;;;;7.51;47.26;100122.75;3102953;28;20046;-70
2024/01/26 06:13:30;;;;;;;6.15;1.80;;;;;;;7.53;47.28;100117.50;3097922;28;20057;-67
2024/01/26 06:15:01;;;;;;;8.82;2.38;;;;;;;7.55;47.33;100123.50;3099296;28;20058;-66
2024/01/26 06:16:33;;;;;;;7.93;1.90;;;;;;;7.62;47.13;100124.19;3094390;28;20066;-67
2024/01/26 06:18:05;;;;;;;7.15;1.38;;;;;;;7.65;47.13;100124.09;3099309;28;20076;-66
2024/01/26 06:19:37;;;;;;;9.50;1.83;;;;;;;7.72;46.82;100131.66;3094390;28;20046;-67
2024/01/26 06:21:09;;;;;;;7.90;1.65;;;;;;;7.69;46.98;100125.69;3091049;28;20126;-70
2024/01/26 06:22:39;;;;;;;7.03;1.38;;;;;;;7.70;46.87;100117.03;3098494;28;20050;-72
2024/01/26 06:24:11;;;;;;;10.25;2.17;;;;;;;7.86;46.66;100131.25;3101932;28;20057;-67
2024/01/26 06:25:42;;;;;;;9.13;2.05;;;;;;;7.91;46.39;100129.38;3106147;28;20056;-75
2024/01/26 06:27:14;;;;;;;9.90;2.15;;;;;;;7.98;46.38;100133.47;3106756;28;20491;-70
2024/01/26 06:28:46;;;;;;;5.53;1.48;;;;;;;8.07;46.22;100139.31;3106756;28;20459;-68
2024/01/26 06:30:18;;;;;;;10.77;2.10;;;;;;;8.11;46.24;100146.97;3104046;28;20052;-72
2024/01/26 06:31:49;;;;;;;6.13;1.77;;;;;;;8.19;45.93;100142.41;3094778;28;20077;-68
2024/01/26 06:33:22;;;;;;;8.80;1.70;;;;;;;8.27;45.70;100144.75;3101895;28;20077;-70
2024/01/26 06:34:52;;;;;;;10.38;1.83;;;;;;;8.30;45.37;100131.69;3105537;28;20057;-69
2024/01/26 06:36:24;;;;;;;12.57;1.98;;;;;;;8.42;45.40;100138.28;3095681;28;20058;-69
2024/01/26 06:37:55;;;;;;;9.57;1.63;;;;;;;8.49;45.29;100139.81;3105503;28;20133;-69
2024/01/26 06:39:27;;;;;;;6.00;1.52;;;;;;;8.58;45.21;100138.66;3102856;28;20546;-70
2024/01/26 06:40:59;;;;;;;8.88;1.92;;;;;;;8.63;44.74;100135.00;3093846;28;20088;-71
2024/01/26 06:42:32;;;;;;;7.65;1.60;;;;;;;8.76;44.63;100143.28;3103133;28;20057;-75
2024/01/26 06:44:05;;;;;;;8.77;1.67;;;;;;;8.85;44.39;100137.78;3106504;28;20058;-73
2024/01/26 06:45:37;;;;;;;5.68;1.60;;;;;;;8.93;44.27;100145.28;3106340;28;20058;-73
2024/01/26 06:47:07;;;;;;;11.55;1.90;;;;;;;9.04;44.00;100147.56;3099760;28;20054;-72
2024/01/26 06:48:40;;;;;;;10.60;2.10;;;;;;;9.12;43.67;100142.94;3100017;28;20054;-71
2024/01/26 06:50:10;;;;;;;9.35;2.20;;;;;;;9.18;43.36;100137.53;3106176;28;20496;-70
2024/01/26 06:51:42;;;;;;;10.65;1.73;;;;;;;9.24;43.51;100139.94;3103616;28;20053;-74
2024/01/26 06:53:13;;;;;;;6.90;1.80;;;;;;;9.28;43.35;100146.72;3102006;28;20054;-73
2024/01/26 06:54:45;;;;;;;6.53;1.80;;;;;;;9.36;43.12;100145.63;3086302;28;20096;-74
2024/01/26 06:56:16;;;;;;;8.25;1.35;;;;;;;9.05;43.00;100081.69;3097145;28;20073;-71
2024/01/26 06:57:48;;;;;;;8.85;1.95;;;;;;;9.45;42.61;100145.28;3096729;28;20455;-72
2024/01/26 06:59:20;;;;;;;4.95;1.35;;;;;;;9.44;42.49;100141.84;3099355;28;20061;-70
2024/01/26 07:00:53;;;;;;;12.25;1.65;;;;;;;9.51;42.61;100142.47;3106488;28;20054;-70
2024/01/26 07:02:24;;;;;;;5.63;1.75;;;;;;;9.59;42.58;100148.25;3107087;28;20101;-71
2024/01/26 07:03:55;;;;;;;7.32;2.05;;;;;;;9.73;42.34;100138.22;3096244;28;20369;-74
2024/01/26 07:05:28;;;;;;;7.90;1.92;;;;;;;9.86;42.09;100142.97;3097926;28;20060;-71
2024/01/26 07:06:59;;;;;;;7.10;1.88;;;;;;;9.90;41.70;100134.97;3098961;28;20054;-75
2024/01/26 07:08:31;;;;;;;5.53;2.15;;;;;;;9.87;41.83;100147.25;3096787;28;20459;-78
2024/01/26 07:10:11;;;;;;;16.65;2.65;;;;;;;9.84;41.53;100127.41;3094016;28;20120;-76
2024/01/26 07:12:16;;;;;;;5.38;1.63;;;;;;;9.80;41.99;100144.03;3095380;28;20115;-75